createdAt,value
2022-09-30T00:00:56.213Z,11.33
2022-09-30T00:03:24.135Z,11.32
2022-09-30T00:06:07.676Z,11.19
2022-09-30T00:08:36.267Z,11.29
2022-09-30T00:11:23.117Z,11.33
2022-09-30T00:13:51.846Z,11.45
2022-09-30T00:16:21.144Z,11.57
2022-09-30T00:18:48.419Z,11.30
2022-09-30T00:21:16.316Z,11.47
2022-09-30T00:23:44.087Z,11.30
2022-09-30T00:26:13.225Z,11.29
2022-09-30T00:28:40.666Z,11.42
2022-09-30T00:31:10.884Z,11.33
2022-09-30T00:33:37.592Z,11.00
2022-09-30T00:36:04.366Z,11.17
2022-09-30T00:38:31.187Z,10.82
2022-09-30T00:40:59.656Z,10.72
2022-09-30T00:43:46.564Z,10.97
2022-09-30T00:46:44.412Z,11.07
2022-09-30T00:49:14.655Z,11.12
2022-09-30T00:51:47.681Z,11.18
2022-09-30T00:54:20.765Z,11.10
2022-09-30T00:56:51.778Z,11.13
2022-09-30T00:59:24.141Z,10.92
2022-09-30T01:01:50.983Z,11.19
2022-09-30T01:04:20.715Z,11.23
2022-09-30T01:06:47.903Z,11.12
2022-09-30T01:09:14.837Z,11.25
2022-09-30T01:11:41.383Z,11.10
2022-09-30T01:14:09.197Z,11.11
2022-09-30T01:16:47.112Z,10.67
2022-09-30T01:19:58.228Z,10.48
2022-09-30T01:22:27.377Z,10.83
2022-09-30T01:25:15.577Z,10.51
2022-09-30T01:28:05.547Z,10.50
2022-09-30T01:30:50.790Z,10.73
2022-09-30T01:33:43.058Z,10.36
2022-09-30T01:36:21.934Z,10.68
2022-09-30T01:39:13.496Z,10.72
2022-09-30T01:41:52.290Z,10.84
2022-09-30T01:44:37.963Z,10.72
2022-09-30T01:47:15.339Z,10.40
2022-09-30T01:49:50.346Z,10.67
2022-09-30T01:52:23.190Z,10.67
2022-09-30T01:55:11.622Z,10.68
2022-09-30T01:57:56.578Z,9.91
2022-09-30T02:00:23.166Z,9.76
2022-09-30T02:03:02.719Z,9.98
2022-09-30T02:05:36.793Z,10.15
2022-09-30T02:08:32.008Z,10.35
2022-09-30T02:11:02.810Z,10.42
2022-09-30T02:13:49.783Z,10.44
2022-09-30T02:16:23.040Z,10.12
2022-09-30T02:18:56.189Z,10.15
2022-09-30T02:21:30.354Z,10.44
2022-09-30T02:24:08.877Z,10.06
2022-09-30T02:26:41.765Z,10.35
2022-09-30T02:29:13.352Z,10.14
2022-09-30T02:31:41.738Z,10.41
2022-09-30T02:34:13.714Z,10.41
2022-09-30T02:36:45.062Z,9.99
2022-09-30T02:39:16.570Z,9.40
2022-09-30T02:41:51.621Z,9.92
2022-09-30T02:44:19.548Z,9.90
2022-09-30T02:46:57.244Z,10.19
2022-09-30T02:49:40.227Z,10.38
2022-09-30T02:52:21.096Z,10.42
2022-09-30T02:55:10.065Z,10.33
2022-09-30T02:58:01.012Z,10.51
2022-09-30T03:00:27.762Z,10.49
2022-09-30T03:02:57.174Z,10.42
2022-09-30T03:05:23.769Z,10.36
2022-09-30T03:07:50.676Z,10.46
2022-09-30T03:10:17.707Z,10.44
2022-09-30T03:13:00.684Z,10.53
2022-09-30T03:15:37.215Z,10.52
2022-09-30T03:18:28.556Z,10.34
2022-09-30T03:20:55.023Z,10.42
2022-09-30T03:23:42.724Z,10.57
2022-09-30T03:26:24.454Z,10.42
2022-09-30T03:29:22.723Z,10.49
2022-09-30T03:32:16.897Z,10.58
2022-09-30T03:34:55.383Z,10.51
2022-09-30T03:37:52.827Z,10.53
2022-09-30T03:40:39.478Z,10.56
2022-09-30T03:43:19.346Z,10.55
2022-09-30T03:46:01.742Z,10.35
2022-09-30T03:48:30.056Z,10.16
2022-09-30T03:50:56.894Z,10.33
2022-09-30T03:53:23.718Z,10.21
2022-09-30T03:55:52.860Z,9.77
2022-09-30T03:58:20.703Z,9.77
2022-09-30T04:00:53.215Z,9.84
2022-09-30T04:03:22.049Z,9.95
2022-09-30T04:05:49.300Z,10.03
2022-09-30T04:08:16.358Z,9.73
2022-09-30T04:10:46.602Z,9.75
2022-09-30T04:13:13.400Z,9.64
2022-09-30T04:15:40.689Z,9.90
2022-09-30T04:18:07.776Z,9.61
2022-09-30T04:20:34.286Z,9.66
2022-09-30T04:23:01.630Z,10.07
2022-09-30T04:25:28.904Z,10.10
2022-09-30T04:27:56.224Z,9.87
2022-09-30T04:30:26.360Z,10.22
2022-09-30T04:32:52.953Z,9.97
2022-09-30T04:35:19.936Z,10.02
2022-09-30T04:37:47.514Z,9.71
2022-09-30T04:40:15.877Z,9.39
2022-09-30T04:42:43.242Z,9.88
2022-09-30T04:45:11.084Z,10.00
2022-09-30T04:47:37.672Z,9.76
2022-09-30T04:50:05.570Z,9.45
2022-09-30T04:52:32.069Z,9.65
2022-09-30T04:54:58.720Z,9.35
2022-09-30T04:57:25.569Z,9.45
2022-09-30T04:59:52.291Z,9.49
2022-09-30T05:02:18.947Z,9.71
2022-09-30T05:04:45.659Z,9.59
2022-09-30T05:07:12.129Z,9.75
2022-09-30T05:09:38.850Z,9.90
2022-09-30T05:12:05.513Z,9.92
2022-09-30T05:14:33.308Z,9.72
2022-09-30T05:16:59.878Z,9.60
2022-09-30T05:19:26.439Z,9.57
2022-09-30T05:21:52.930Z,9.90
2022-09-30T05:24:19.421Z,9.59
2022-09-30T05:26:45.969Z,9.48
2022-09-30T05:29:12.593Z,9.32
2022-09-30T05:31:39.884Z,9.74
2022-09-30T05:34:06.533Z,9.72
2022-09-30T05:36:33.136Z,9.40
2022-09-30T05:38:59.565Z,9.68
2022-09-30T05:41:26.229Z,9.73
2022-09-30T05:43:52.813Z,9.66
2022-09-30T05:46:20.245Z,9.90
2022-09-30T05:48:46.974Z,9.95
2022-09-30T05:51:13.766Z,10.03
2022-09-30T05:53:41.176Z,9.47
2022-09-30T05:56:08.968Z,9.58
2022-09-30T05:58:36.252Z,9.79
2022-09-30T06:01:13.093Z,9.83
2022-09-30T06:03:40.908Z,9.87
2022-09-30T06:06:08.043Z,9.83
2022-09-30T06:08:34.749Z,9.60
2022-09-30T06:11:02.310Z,9.71
2022-09-30T06:13:29.617Z,9.87
2022-09-30T06:16:00.474Z,10.26
2022-09-30T06:18:28.177Z,10.38
2022-09-30T06:21:02.894Z,10.29
2022-09-30T06:23:30.271Z,10.51
2022-09-30T06:25:58.382Z,10.68
2022-09-30T06:28:24.916Z,10.69
2022-09-30T06:30:51.341Z,10.72
2022-09-30T06:33:17.929Z,10.55
2022-09-30T06:35:45.789Z,10.70
2022-09-30T06:38:13.312Z,10.97
2022-09-30T06:40:40.380Z,10.87
2022-09-30T06:43:07.199Z,11.10
2022-09-30T06:45:35.645Z,11.29
2022-09-30T06:48:03.848Z,11.34
2022-09-30T06:50:31.592Z,11.20
2022-09-30T06:53:02.737Z,11.28
2022-09-30T06:55:30.082Z,11.43
2022-09-30T06:57:57.090Z,11.49
2022-09-30T07:00:25.748Z,12.06
2022-09-30T07:02:55.124Z,11.96
2022-09-30T07:05:21.626Z,11.77
2022-09-30T07:07:49.115Z,12.28
2022-09-30T07:10:15.711Z,12.32
2022-09-30T07:12:42.226Z,12.55
2022-09-30T07:15:13.514Z,12.52
2022-09-30T07:17:40.762Z,12.62
2022-09-30T07:20:08.261Z,12.45
2022-09-30T07:22:34.751Z,12.68
2022-09-30T07:25:05.554Z,13.10
2022-09-30T07:27:33.896Z,13.00
2022-09-30T07:30:10.196Z,13.46
2022-09-30T07:32:39.236Z,13.84
2022-09-30T07:35:06.353Z,13.71
2022-09-30T07:37:35.990Z,14.02
2022-09-30T07:40:08.506Z,14.35
2022-09-30T07:42:38.226Z,14.09
2022-09-30T07:45:05.148Z,14.18
2022-09-30T07:47:31.644Z,14.35
2022-09-30T07:49:58.158Z,14.59
2022-09-30T07:52:24.705Z,14.69
2022-09-30T07:54:51.223Z,14.86
2022-09-30T07:57:18.084Z,15.02
2022-09-30T07:59:44.678Z,14.76
2022-09-30T08:02:15.451Z,15.39
2022-09-30T08:04:44.264Z,15.51
2022-09-30T08:07:11.496Z,15.03
2022-09-30T08:09:38.077Z,15.73
2022-09-30T08:12:05.472Z,15.61
2022-09-30T08:14:32.356Z,16.05
2022-09-30T08:17:00.355Z,16.10
2022-09-30T08:19:29.242Z,16.66
2022-09-30T08:21:55.886Z,16.28
2022-09-30T08:24:23.953Z,16.15
2022-09-30T08:26:51.104Z,15.91
2022-09-30T08:29:20.657Z,15.80
2022-09-30T08:31:56.815Z,15.58
2022-09-30T08:34:23.938Z,15.30
2022-09-30T08:36:50.458Z,15.47
2022-09-30T08:39:16.937Z,16.01
2022-09-30T08:42:18.991Z,15.69
2022-09-30T08:45:06.639Z,16.92
2022-09-30T08:47:54.996Z,17.47
2022-09-30T08:50:39.708Z,16.42
2022-09-30T08:53:11.863Z,16.79
2022-09-30T08:55:43.797Z,17.35
2022-09-30T08:58:21.633Z,17.39
2022-09-30T09:00:50.285Z,18.75
2022-09-30T09:03:20.371Z,18.82
2022-09-30T09:05:58.928Z,18.39
2022-09-30T09:09:03.332Z,17.76
2022-09-30T09:11:49.155Z,18.76
2022-09-30T09:14:40.842Z,19.72
2022-09-30T09:17:22.378Z,19.34
2022-09-30T09:20:20.220Z,19.78
2022-09-30T09:22:46.722Z,19.05
2022-09-30T09:25:16.531Z,19.27
2022-09-30T09:28:22.932Z,19.85
2022-09-30T09:30:52.994Z,20.24
2022-09-30T09:33:22.911Z,19.38
2022-09-30T09:36:00.934Z,22.50
2022-09-30T09:38:36.007Z,26.51
2022-09-30T09:41:41.209Z,28.50
2022-09-30T09:44:22.250Z,32.85
2022-09-30T09:47:14.002Z,34.20
2022-09-30T09:49:42.823Z,35.80
2022-09-30T09:52:12.716Z,35.43
2022-09-30T09:54:43.850Z,37.73
2022-09-30T09:57:12.888Z,35.90
2022-09-30T09:59:56.579Z,35.08
2022-09-30T10:02:31.489Z,36.90
2022-09-30T10:05:03.577Z,38.76
2022-09-30T10:07:34.117Z,37.30
2022-09-30T10:10:23.391Z,40.38
2022-09-30T10:12:50.543Z,33.73
2022-09-30T10:15:26.264Z,39.40
2022-09-30T10:17:57.538Z,34.95
2022-09-30T10:20:32.484Z,38.65
2022-09-30T10:23:21.070Z,40.30
2022-09-30T10:26:00.675Z,38.02
2022-09-30T10:28:30.052Z,39.20
2022-09-30T10:31:07.947Z,39.06
2022-09-30T10:33:44.965Z,39.59
2022-09-30T10:36:18.234Z,37.29
2022-09-30T10:39:01.218Z,36.58
2022-09-30T10:41:32.479Z,35.72
2022-09-30T10:44:01.558Z,34.49
2022-09-30T10:46:31.661Z,38.88
2022-09-30T10:48:59.078Z,37.70
2022-09-30T10:51:34.057Z,32.13
2022-09-30T10:54:01.323Z,29.26
2022-09-30T10:56:45.513Z,30.57
2022-09-30T10:59:29.094Z,27.56
2022-09-30T11:02:29.649Z,26.29
2022-09-30T11:04:59.276Z,27.75
2022-09-30T11:07:30.430Z,23.10
2022-09-30T11:10:04.038Z,23.46
2022-09-30T11:12:39.041Z,26.58
2022-09-30T11:15:22.465Z,22.70
2022-09-30T11:17:55.225Z,22.55
2022-09-30T11:20:25.665Z,22.04
2022-09-30T11:23:00.650Z,20.46
2022-09-30T11:25:34.145Z,23.44
2022-09-30T11:28:20.163Z,28.67
2022-09-30T11:31:06.232Z,27.16
2022-09-30T11:33:56.439Z,26.08
2022-09-30T11:36:54.373Z,27.65
2022-09-30T11:39:25.336Z,26.70
2022-09-30T11:42:07.827Z,24.87
2022-09-30T11:44:36.070Z,23.75
2022-09-30T11:47:09.637Z,22.76
2022-09-30T11:49:44.896Z,21.73
2022-09-30T11:52:53.056Z,22.72
2022-09-30T11:55:48.924Z,26.54
2022-09-30T11:58:40.331Z,30.26
2022-09-30T12:01:38.105Z,29.79
2022-09-30T12:04:15.483Z,30.90
2022-09-30T12:06:56.281Z,30.70
2022-09-30T12:09:26.109Z,28.87
2022-09-30T12:12:07.918Z,24.92
2022-09-30T12:14:50.107Z,24.64
2022-09-30T12:17:31.399Z,24.11
2022-09-30T12:20:03.523Z,22.81
2022-09-30T12:22:41.751Z,22.10
2022-09-30T12:25:21.264Z,21.72
2022-09-30T12:27:56.658Z,20.02
2022-09-30T12:30:24.033Z,20.33
2022-09-30T12:32:59.571Z,20.33
2022-09-30T12:36:04.678Z,19.53
2022-09-30T12:39:03.593Z,20.34
2022-09-30T12:41:40.827Z,19.53
2022-09-30T12:44:46.124Z,19.42
2022-09-30T12:47:30.341Z,20.30
2022-09-30T12:49:58.979Z,19.40
2022-09-30T12:52:26.434Z,19.80
2022-09-30T12:54:59.476Z,19.71
2022-09-30T12:57:29.926Z,19.60
2022-09-30T13:00:04.412Z,19.50
2022-09-30T13:02:37.483Z,19.49
2022-09-30T13:05:39.121Z,19.36
2022-09-30T13:08:05.614Z,20.02
2022-09-30T13:10:32.081Z,19.57
2022-09-30T13:13:10.826Z,19.47
2022-09-30T13:15:42.844Z,19.86
2022-09-30T13:18:21.968Z,19.42
2022-09-30T13:20:59.081Z,19.54
2022-09-30T13:23:55.973Z,19.31
2022-09-30T13:26:22.362Z,19.45
2022-09-30T13:28:50.232Z,19.77
2022-09-30T13:31:19.179Z,18.97
2022-09-30T13:34:02.031Z,19.50
2022-09-30T13:36:40.725Z,19.03
2022-09-30T13:39:25.619Z,19.58
2022-09-30T13:41:55.217Z,19.78
2022-09-30T13:44:30.978Z,19.19
2022-09-30T13:47:02.068Z,19.10
2022-09-30T13:49:57.167Z,19.93
2022-09-30T13:52:28.241Z,19.80
2022-09-30T13:54:55.717Z,19.60
2022-09-30T13:57:28.034Z,19.09
2022-09-30T14:00:16.272Z,19.36
2022-09-30T14:02:48.366Z,19.41
2022-09-30T14:05:29.587Z,20.08
2022-09-30T14:08:15.888Z,20.30
2022-09-30T14:10:48.829Z,19.87
2022-09-30T14:13:24.265Z,19.69
2022-09-30T14:16:06.744Z,19.92
2022-09-30T14:18:44.208Z,20.52
2022-09-30T14:21:38.732Z,19.90
2022-09-30T14:24:16.171Z,19.49
2022-09-30T14:27:12.978Z,19.14
2022-09-30T14:30:10.534Z,18.37
2022-09-30T14:32:56.757Z,19.05
2022-09-30T14:35:28.178Z,18.93
2022-09-30T14:37:58.011Z,18.77
2022-09-30T14:40:29.881Z,18.72
2022-09-30T14:43:02.654Z,19.32
2022-09-30T14:45:32.852Z,19.68
2022-09-30T14:48:15.151Z,19.48
2022-09-30T14:50:46.867Z,20.17
2022-09-30T14:53:35.789Z,19.87
2022-09-30T14:56:07.069Z,19.53
2022-09-30T14:58:42.458Z,19.13
2022-09-30T15:01:17.541Z,19.11
2022-09-30T15:03:56.404Z,19.71
2022-09-30T15:06:29.519Z,19.90
2022-09-30T15:09:02.550Z,19.81
2022-09-30T15:11:29.753Z,19.79
2022-09-30T15:14:08.584Z,18.81
2022-09-30T15:16:44.693Z,18.34
2022-09-30T15:19:23.704Z,18.56
2022-09-30T15:21:51.215Z,18.68
2022-09-30T15:24:19.427Z,18.83
2022-09-30T15:26:48.927Z,18.56
2022-09-30T15:29:16.647Z,18.50
2022-09-30T15:31:49.100Z,18.47
2022-09-30T15:34:20.380Z,18.37
2022-09-30T15:36:57.919Z,17.92
2022-09-30T15:39:47.572Z,17.86
2022-09-30T15:42:27.918Z,17.99
2022-09-30T15:44:54.615Z,17.70
2022-09-30T15:47:21.112Z,17.78
2022-09-30T15:49:52.960Z,17.92
2022-09-30T15:52:41.167Z,17.40
2022-09-30T15:55:38.032Z,18.18
2022-09-30T15:58:05.510Z,17.62
2022-09-30T16:00:34.425Z,17.81
2022-09-30T16:03:18.970Z,17.60
2022-09-30T16:05:48.664Z,17.32
2022-09-30T16:08:23.119Z,17.60
2022-09-30T16:10:52.688Z,17.49
2022-09-30T16:13:22.173Z,17.77
2022-09-30T16:15:50.985Z,17.98
2022-09-30T16:18:20.443Z,17.99
2022-09-30T16:21:02.210Z,17.69
2022-09-30T16:23:37.195Z,17.96
2022-09-30T16:26:32.409Z,17.74
2022-09-30T16:29:05.936Z,17.43
2022-09-30T16:31:36.260Z,17.59
2022-09-30T16:34:03.087Z,17.18
2022-09-30T16:36:29.896Z,17.16
2022-09-30T16:38:56.601Z,16.87
2022-09-30T16:41:25.214Z,17.27
2022-09-30T16:43:51.730Z,17.16
2022-09-30T16:46:18.406Z,16.89
2022-09-30T16:48:44.978Z,16.93
2022-09-30T16:51:14.834Z,17.19
2022-09-30T16:53:41.764Z,16.46
2022-09-30T16:56:16.597Z,16.72
2022-09-30T16:58:44.164Z,16.67
2022-09-30T17:01:19.967Z,16.68
2022-09-30T17:03:47.064Z,16.49
2022-09-30T17:06:14.753Z,16.57
2022-09-30T17:08:41.422Z,16.05
2022-09-30T17:11:08.214Z,16.39
2022-09-30T17:13:35.549Z,16.35
2022-09-30T17:16:02.371Z,16.27
2022-09-30T17:18:29.195Z,16.11
2022-09-30T17:20:56.484Z,16.05
2022-09-30T17:23:25.063Z,16.00
2022-09-30T17:25:52.355Z,16.28
2022-09-30T17:28:19.306Z,16.20
2022-09-30T17:30:48.061Z,16.01
2022-09-30T17:33:19.677Z,15.87
2022-09-30T17:35:59.306Z,15.50
2022-09-30T17:38:25.896Z,15.81
2022-09-30T17:41:11.241Z,15.63
2022-09-30T17:43:37.835Z,15.35
2022-09-30T17:46:04.502Z,15.19
2022-09-30T17:48:31.194Z,15.54
2022-09-30T17:50:58.029Z,15.51
2022-09-30T17:53:24.996Z,15.44
2022-09-30T17:56:02.466Z,15.58
2022-09-30T17:58:29.302Z,15.43
2022-09-30T18:00:58.721Z,15.35
2022-09-30T18:03:26.309Z,15.19
2022-09-30T18:05:59.433Z,15.32
2022-09-30T18:08:26.249Z,14.97
2022-09-30T18:10:52.871Z,14.76
2022-09-30T18:13:19.463Z,14.87
2022-09-30T18:15:46.688Z,15.06
2022-09-30T18:18:13.763Z,15.11
2022-09-30T18:20:47.691Z,14.93
2022-09-30T18:23:16.547Z,15.28
2022-09-30T18:25:43.916Z,15.45
2022-09-30T18:28:11.361Z,15.35
2022-09-30T18:30:39.272Z,15.14
2022-09-30T18:33:07.314Z,15.26
2022-09-30T18:35:35.716Z,14.49
2022-09-30T18:38:02.498Z,14.86
2022-09-30T18:40:30.144Z,15.12
2022-09-30T18:43:02.689Z,14.69
2022-09-30T18:45:30.849Z,14.71
2022-09-30T18:47:59.543Z,14.68
2022-09-30T18:50:28.288Z,14.73
2022-09-30T18:52:55.773Z,14.64
2022-09-30T18:55:22.454Z,13.98
2022-09-30T18:57:50.334Z,13.43
2022-09-30T19:00:17.800Z,13.52
2022-09-30T19:02:44.908Z,13.64
2022-09-30T19:05:13.087Z,13.72
2022-09-30T19:07:39.688Z,13.86
2022-09-30T19:10:12.488Z,14.03
2022-09-30T19:12:40.321Z,13.00
2022-09-30T19:15:09.506Z,13.96
2022-09-30T19:17:37.402Z,14.21
2022-09-30T19:20:05.697Z,14.02
2022-09-30T19:22:37.151Z,13.87
2022-09-30T19:25:11.057Z,13.96
2022-09-30T19:27:39.127Z,13.90
2022-09-30T19:30:07.252Z,13.92
2022-09-30T19:32:36.628Z,13.78
2022-09-30T19:35:06.600Z,13.69
2022-09-30T19:37:34.432Z,13.55
2022-09-30T19:40:10.465Z,13.60
2022-09-30T19:42:42.945Z,13.80
2022-09-30T19:45:11.737Z,13.93
2022-09-30T19:47:38.229Z,13.74
2022-09-30T19:50:05.601Z,13.95
2022-09-30T19:52:33.734Z,13.92
2022-09-30T19:55:12.911Z,14.00
2022-09-30T19:57:42.790Z,14.01
2022-09-30T20:00:11.653Z,14.09
2022-09-30T20:02:38.363Z,14.04
2022-09-30T20:05:05.290Z,13.91
2022-09-30T20:07:32.029Z,13.50
2022-09-30T20:09:58.520Z,14.10
2022-09-30T20:12:25.293Z,13.90
2022-09-30T20:15:10.561Z,13.51
2022-09-30T20:17:37.056Z,13.79
2022-09-30T20:20:23.357Z,13.16
2022-09-30T20:22:49.864Z,13.34
2022-09-30T20:25:16.898Z,13.24
2022-09-30T20:27:48.630Z,13.13
2022-09-30T20:30:18.532Z,13.50
2022-09-30T20:32:45.036Z,13.24
2022-09-30T20:35:11.604Z,13.29
2022-09-30T20:37:39.566Z,13.38
2022-09-30T20:40:09.102Z,13.41
2022-09-30T20:42:37.814Z,13.69
2022-09-30T20:45:06.183Z,13.44
2022-09-30T20:47:33.029Z,13.49
2022-09-30T20:49:59.596Z,13.13
2022-09-30T20:52:26.043Z,13.42
2022-09-30T20:54:53.097Z,13.42
2022-09-30T20:57:19.572Z,13.17
2022-09-30T20:59:47.182Z,13.14
2022-09-30T21:02:14.042Z,13.40
2022-09-30T21:04:41.328Z,13.40
2022-09-30T21:07:07.818Z,12.95
2022-09-30T21:09:37.187Z,13.15
2022-09-30T21:12:03.934Z,13.46
2022-09-30T21:14:30.411Z,13.27
2022-09-30T21:16:56.863Z,13.21
2022-09-30T21:19:23.407Z,13.45
2022-09-30T21:21:49.880Z,13.51
2022-09-30T21:24:16.380Z,13.55
2022-09-30T21:26:43.408Z,13.53
2022-09-30T21:29:09.913Z,13.52
2022-09-30T21:31:37.809Z,13.54
2022-09-30T21:34:04.816Z,13.19
2022-09-30T21:36:32.103Z,13.68
2022-09-30T21:39:04.874Z,13.61
2022-09-30T21:41:33.458Z,13.55
2022-09-30T21:44:01.327Z,14.01
2022-09-30T21:46:29.453Z,13.42
2022-09-30T21:49:18.870Z,13.51
2022-09-30T21:51:46.133Z,13.59
2022-09-30T21:54:13.910Z,13.71
2022-09-30T21:56:42.696Z,13.81
2022-09-30T21:59:09.818Z,13.63
2022-09-30T22:01:37.510Z,13.64
2022-09-30T22:04:04.978Z,13.61
2022-09-30T22:06:31.901Z,13.63
2022-09-30T22:09:01.377Z,13.71
2022-09-30T22:11:29.352Z,13.73
2022-09-30T22:13:57.507Z,14.00
2022-09-30T22:16:27.824Z,13.56
2022-09-30T22:18:55.857Z,13.55
2022-09-30T22:21:22.402Z,13.75
2022-09-30T22:23:49.518Z,13.77
2022-09-30T22:26:18.441Z,13.59
2022-09-30T22:28:46.259Z,13.56
2022-09-30T22:31:19.884Z,13.89
2022-09-30T22:34:06.196Z,13.79
2022-09-30T22:36:51.318Z,13.24
2022-09-30T22:39:18.413Z,13.65
2022-09-30T22:41:45.161Z,13.81
2022-09-30T22:44:11.820Z,13.68
2022-09-30T22:46:39.349Z,13.46
2022-09-30T22:49:06.298Z,13.60
2022-09-30T22:51:33.278Z,13.84
2022-09-30T22:54:01.295Z,13.76
2022-09-30T22:56:27.875Z,13.14
2022-09-30T22:58:54.616Z,13.90
2022-09-30T23:01:21.747Z,13.62
2022-09-30T23:03:53.884Z,13.68
2022-09-30T23:06:20.985Z,13.69
2022-09-30T23:08:47.677Z,13.76
2022-09-30T23:11:18.660Z,13.78
2022-09-30T23:13:46.356Z,14.07
2022-09-30T23:16:14.580Z,13.59
2022-09-30T23:18:41.684Z,13.60
2022-09-30T23:21:14.917Z,13.88
2022-09-30T23:23:41.888Z,13.64
2022-09-30T23:26:12.642Z,14.13
2022-09-30T23:28:39.243Z,13.86
2022-09-30T23:31:09.290Z,13.79
2022-09-30T23:33:46.925Z,13.51
2022-09-30T23:36:14.998Z,13.62
2022-09-30T23:38:41.807Z,13.68
2022-09-30T23:41:09.788Z,13.86
2022-09-30T23:43:37.040Z,13.49
2022-09-30T23:46:07.471Z,13.81
2022-09-30T23:48:35.681Z,13.27
2022-09-30T23:51:04.360Z,13.98
2022-09-30T23:53:31.807Z,14.18
2022-09-30T23:56:02.928Z,13.76
2022-09-30T23:58:30.132Z,13.71
